Time;durP1;ratioP1;P1;durP2;ratioP2;P2;SDS_P1;SDS_P2;PMS_P1;PMS_P2;Temp;Humidity;BMP_temperature;BMP_pressure;BME280_temperature;BME280_humidity;BME280_pressure;Samples;Min_cycle;Max_cycle;Signal;HPM_P1;HPM_P2
2021/05/11 00:01:28;;;;;;;1.47;1.37;;;;;;;14.83;100.00;99872.47;5014115;28;20326;-71
2021/05/11 00:03:54;;;;;;;1.53;1.43;;;;;;;14.91;100.00;99854.22;5012565;28;20200;-72
2021/05/11 00:06:19;;;;;;;1.70;1.60;;;;;;;15.00;100.00;99854.03;5013785;28;20629;-72
2021/05/11 00:08:45;;;;;;;2.13;1.60;;;;;;;14.97;100.00;99863.78;5013225;28;20172;-72
2021/05/11 00:11:10;;;;;;;1.53;1.43;;;;;;;15.01;100.00;99861.13;5013458;28;20219;-72
2021/05/11 00:13:35;;;;;;;1.43;1.33;;;;;;;14.56;100.00;99829.34;5013410;28;20180;-72
2021/05/11 00:16:01;;;;;;;2.00;1.90;;;;;;;14.35;100.00;99823.25;5013383;28;20631;-72
2021/05/11 00:18:26;;;;;;;2.27;2.07;;;;;;;14.50;100.00;99850.81;4995912;28;20180;-72
2021/05/11 00:20:52;;;;;;;1.97;1.87;;;;;;;14.58;100.00;99877.31;5013736;28;20181;-71
2021/05/11 00:23:17;;;;;;;2.03;1.83;;;;;;;14.50;100.00;99850.81;5013090;28;20872;-72
2021/05/11 00:25:43;;;;;;;1.63;1.53;;;;;;;14.33;100.00;99836.56;5013367;28;20260;-72
2021/05/11 00:28:08;;;;;;;1.50;1.43;;;;;;;14.52;100.00;99847.69;5013291;28;20225;-72
2021/05/11 00:30:33;;;;;;;2.10;2.00;;;;;;;14.54;100.00;99873.69;5013160;28;20172;-72
2021/05/11 00:32:59;;;;;;;2.00;1.80;;;;;;;14.51;100.00;99888.13;5013033;28;20169;-72
2021/05/11 00:35:24;;;;;;;2.40;2.20;;;;;;;14.29;100.00;99845.47;5013156;28;20659;-71
2021/05/11 00:37:49;;;;;;;2.00;1.90;;;;;;;14.21;100.00;99824.47;5012852;28;20657;-72
2021/05/11 00:40:15;;;;;;;2.63;2.53;;;;;;;14.29;100.00;99834.50;5013232;28;20180;-73
2021/05/11 00:42:40;;;;;;;1.73;1.63;;;;;;;14.49;100.00;99842.91;5013021;28;20177;-72
2021/05/11 00:45:07;;;;;;;4.23;2.67;;;;;;;14.62;100.00;99835.41;5012833;28;20266;-72
2021/05/11 00:47:32;;;;;;;1.83;1.73;;;;;;;14.81;100.00;99836.28;5012794;28;20176;-73
2021/05/11 00:49:58;;;;;;;2.50;2.30;;;;;;;14.89;100.00;99846.28;5011859;28;20210;-72
2021/05/11 00:52:24;;;;;;;2.63;2.43;;;;;;;14.94;100.00;99838.94;5011610;28;20176;-72
2021/05/11 00:54:50;;;;;;;1.60;1.50;;;;;;;14.93;100.00;99821.66;5012865;28;20179;-72
2021/05/11 00:57:16;;;;;;;2.37;2.20;;;;;;;15.01;100.00;99817.91;5012656;28;20173;-72
2021/05/11 00:59:42;;;;;;;1.60;1.50;;;;;;;15.08;100.00;99814.53;5012593;28;20205;-72
2021/05/11 01:02:08;;;;;;;2.53;2.33;;;;;;;15.05;100.00;99812.50;5012504;28;20529;-72
2021/05/11 01:04:35;;;;;;;1.60;1.50;;;;;;;14.97;100.00;99802.47;5011862;28;20668;-73
2021/05/11 01:07:00;;;;;;;3.77;2.13;;;;;;;14.77;100.00;99810.66;5011924;28;20195;-73
2021/05/11 01:09:26;;;;;;;2.00;1.90;;;;;;;14.71;100.00;99809.31;5012523;28;20267;-72
2021/05/11 01:11:53;;;;;;;1.93;1.83;;;;;;;14.94;100.00;99803.19;5012426;28;20197;-74
2021/05/11 01:14:19;;;;;;;2.03;1.60;;;;;;;15.07;100.00;99807.44;5010848;28;20179;-72
2021/05/11 01:16:48;;;;;;;2.20;2.00;;;;;;;15.10;100.00;99802.00;5012386;28;20168;-72
2021/05/11 01:19:21;;;;;;;1.50;1.40;;;;;;;15.18;100.00;99791.94;5012279;28;20180;-72
2021/05/11 01:24:31;;;;;;;2.63;2.33;;;;;;;15.28;100.00;99782.34;5011966;28;20681;-74
2021/05/11 02:18:04;;;;;;;2.77;2.57;;;;;;;14.55;100.00;99762.56;5011334;28;20208;-73
2021/05/11 02:23:13;;;;;;;3.67;3.37;;;;;;;14.71;100.00;99773.56;5011227;28;20199;-72
2021/05/11 02:25:38;;;;;;;3.43;3.23;;;;;;;14.77;100.00;99780.41;5011215;28;20752;-72
2021/05/11 02:28:04;;;;;;;3.17;2.97;;;;;;;14.80;100.00;99774.19;4993550;28;20540;-73
2021/05/11 02:30:29;;;;;;;3.33;3.13;;;;;;;14.81;100.00;99778.53;5011273;28;20183;-73
2021/05/11 02:32:55;;;;;;;3.97;3.67;;;;;;;14.77;100.00;99788.66;5010953;28;20656;-72
2021/05/11 02:35:20;;;;;;;3.67;3.37;;;;;;;14.72;100.00;99788.91;5011036;28;20708;-72
2021/05/11 02:37:46;;;;;;;3.60;3.40;;;;;;;14.72;100.00;99777.91;5011364;28;20188;-73
2021/05/11 02:40:14;;;;;;;4.37;4.07;;;;;;;14.71;100.00;99781.00;5011280;28;20633;-72
2021/05/11 02:42:42;;;;;;;3.60;3.27;;;;;;;14.70;100.00;99776.66;4993421;28;20176;-72
2021/05/11 02:45:13;;;;;;;4.07;3.40;;;;;;;14.67;100.00;99780.94;5010912;28;20261;-73
2021/05/11 02:47:49;;;;;;;2.93;2.73;;;;;;;14.67;100.00;99786.44;5011110;28;20184;-72
2021/05/11 02:50:20;;;;;;;3.97;3.67;;;;;;;14.67;100.00;99778.19;5011382;28;20270;-73
2021/05/11 02:52:46;;;;;;;4.07;3.77;;;;;;;14.70;100.00;99774.72;5010802;28;20227;-72
2021/05/11 02:55:12;;;;;;;4.63;4.23;;;;;;;14.70;100.00;99765.66;5010821;28;20183;-72
2021/05/11 02:57:37;;;;;;;3.87;3.37;;;;;;;14.69;100.00;99764.06;5010896;28;20242;-74
2021/05/11 03:00:05;;;;;;;4.50;4.17;;;;;;;14.69;100.00;99772.31;5011042;28;20268;-74
2021/05/11 03:02:30;;;;;;;4.50;3.93;;;;;;;14.63;100.00;99782.81;5010855;28;20184;-72
2021/05/11 03:04:55;;;;;;;3.87;3.53;;;;;;;14.64;100.00;99794.59;5010618;28;20212;-73
2021/05/11 03:07:22;;;;;;;4.20;3.90;;;;;;;14.61;100.00;99798.03;5010972;28;20263;-73
2021/05/11 03:09:47;;;;;;;4.17;3.87;;;;;;;14.54;100.00;99796.72;5010703;28;20652;-74
2021/05/11 03:12:13;;;;;;;3.63;3.33;;;;;;;14.52;100.00;99799.00;5010782;28;20657;-71
2021/05/11 03:14:39;;;;;;;3.23;2.93;;;;;;;14.49;100.00;99807.19;5010778;28;20741;-73
2021/05/11 03:17:04;;;;;;;3.73;3.43;;;;;;;14.46;100.00;99803.16;4993215;28;20304;-73
2021/05/11 03:19:29;;;;;;;4.20;3.80;;;;;;;14.45;100.00;99798.03;5011053;28;20645;-73
2021/05/11 03:21:55;;;;;;;3.60;3.37;;;;;;;14.46;100.00;99800.41;5010951;28;20181;-72
2021/05/11 03:24:20;;;;;;;3.87;3.57;;;;;;;14.48;100.00;99798.13;5010980;28;20227;-72
2021/05/11 03:26:46;;;;;;;3.53;3.30;;;;;;;14.46;100.00;99802.34;5011148;28;20520;-72
2021/05/11 03:29:12;;;;;;;5.00;4.33;;;;;;;14.43;100.00;99806.59;5013239;28;20168;-72
2021/05/11 03:31:37;;;;;;;3.67;3.37;;;;;;;14.47;100.00;99798.50;5013201;28;20640;-73
2021/05/11 03:34:03;;;;;;;4.60;4.20;;;;;;;14.38;100.00;99795.88;5014722;28;20180;-74
2021/05/11 03:36:28;;;;;;;4.53;4.13;;;;;;;14.51;100.00;99791.91;5014872;28;20199;-73
2021/05/11 03:38:55;;;;;;;4.43;4.13;;;;;;;14.49;100.00;99788.72;5013991;28;20185;-72
2021/05/11 03:41:24;;;;;;;3.90;3.60;;;;;;;14.36;100.00;99783.63;5014679;28;20617;-73
2021/05/11 03:43:55;;;;;;;4.60;4.23;;;;;;;14.45;100.00;99785.06;5014121;28;20205;-73
2021/05/11 03:46:20;;;;;;;4.00;3.73;;;;;;;14.34;100.00;99775.75;5014354;28;20189;-74
2021/05/11 03:48:45;;;;;;;4.13;3.77;;;;;;;14.39;100.00;99788.41;5014284;28;20588;-75
2021/05/11 03:51:11;;;;;;;3.93;3.53;;;;;;;14.42;100.00;99780.25;5014185;28;20219;-73
2021/05/11 03:53:36;;;;;;;4.37;4.00;;;;;;;14.50;100.00;99781.28;5014202;28;20523;-75
2021/05/11 03:56:03;;;;;;;3.67;3.43;;;;;;;14.54;100.00;99785.72;5014149;28;20172;-74
2021/05/11 03:58:28;;;;;;;2.93;2.63;;;;;;;14.65;100.00;99786.00;5013941;28;20188;-73
2021/05/11 04:00:54;;;;;;;3.87;3.57;;;;;;;14.78;100.00;99784.75;5013974;28;20191;-74
2021/05/11 04:03:20;;;;;;;3.97;3.67;;;;;;;14.79;100.00;99788.28;5013934;28;20176;-74
2021/05/11 04:05:48;;;;;;;3.57;3.37;;;;;;;14.78;100.00;99797.69;5013861;28;20177;-73
2021/05/11 04:08:38;;;;;;;4.13;3.73;;;;;;;14.75;100.00;99785.44;5013757;28;20196;-74
2021/05/11 04:11:36;;;;;;;4.40;4.00;;;;;;;14.74;100.00;99788.53;5013857;28;20227;-74
2021/05/11 04:16:41;;;;;;;5.10;4.70;;;;;;;14.77;100.00;99777.66;5013823;28;20316;-74
2021/05/11 04:19:07;;;;;;;4.13;3.83;;;;;;;14.61;100.00;99754.88;5013975;28;20582;-73
2021/05/11 04:21:33;;;;;;;5.37;4.97;;;;;;;14.35;100.00;99738.06;5013633;28;20442;-73
2021/05/11 04:23:59;;;;;;;4.83;4.43;;;;;;;14.24;100.00;99735.03;5013257;28;20242;-74
2021/05/11 04:26:24;;;;;;;5.17;4.87;;;;;;;14.28;100.00;99738.66;5013715;28;20173;-74
2021/05/11 04:28:50;;;;;;;4.50;4.17;;;;;;;14.52;100.00;99751.47;5013648;28;20183;-74
2021/05/11 04:31:17;;;;;;;5.13;4.73;;;;;;;14.58;100.00;99752.81;5013828;28;20183;-74
2021/05/11 04:33:43;;;;;;;5.83;4.60;;;;;;;14.48;100.00;99743.16;5013331;28;20636;-74
2021/05/11 04:36:08;;;;;;;5.07;4.63;;;;;;;14.26;100.00;99732.72;5013603;28;20203;-74
2021/05/11 04:38:34;;;;;;;5.03;4.30;;;;;;;14.20;100.00;99736.91;5014399;28;20264;-73
2021/05/11 04:41:00;;;;;;;4.10;3.80;;;;;;;14.28;100.00;99738.66;5013034;28;20176;-74
2021/05/11 04:43:28;;;;;;;5.33;4.83;;;;;;;14.27;100.00;99737.06;5011670;28;20173;-75
2021/05/11 04:48:50;;;;;;;3.33;3.03;;;;;;;14.11;100.00;99726.06;4976271;28;20588;-74
2021/05/11 04:51:18;;;;;;;3.80;3.50;;;;;;;14.07;100.00;99738.13;5011981;28;20292;-75
2021/05/11 04:53:43;;;;;;;3.43;3.23;;;;;;;13.99;100.00;99737.91;5014006;28;20212;-74
2021/05/11 04:56:09;;;;;;;4.30;4.00;;;;;;;14.06;100.00;99742.81;5012517;28;20208;-74
2021/05/11 04:58:34;;;;;;;3.17;2.97;;;;;;;14.02;100.00;99730.13;5013624;28;20287;-75
2021/05/11 05:01:01;;;;;;;3.93;3.60;;;;;;;13.96;100.00;99733.13;5014455;28;20649;-74
2021/05/11 05:03:28;;;;;;;4.23;3.87;;;;;;;14.03;100.00;99729.75;5012530;28;20180;-74
2021/05/11 05:05:53;;;;;;;3.30;3.00;;;;;;;14.00;100.00;99733.22;5013571;28;20169;-72
2021/05/11 05:08:19;;;;;;;3.30;3.00;;;;;;;14.00;100.00;99736.75;5019832;28;20687;-72
2021/05/11 05:10:45;;;;;;;3.00;2.80;;;;;;;13.97;100.00;99742.97;5016209;28;20608;-72
2021/05/11 05:13:19;;;;;;;3.30;3.03;;;;;;;13.97;100.00;99733.94;5012744;28;20180;-73
2021/05/11 05:15:48;;;;;;;3.50;3.23;;;;;;;14.13;100.00;99737.50;5012553;28;20196;-72
2021/05/11 05:18:14;;;;;;;4.10;3.70;;;;;;;14.17;100.00;99737.59;4994699;28;20594;-73
2021/05/11 05:20:39;;;;;;;3.93;3.63;;;;;;;13.91;100.00;99729.84;5012345;28;20180;-72
2021/05/11 05:23:04;;;;;;;2.83;2.20;;;;;;;13.90;100.00;99733.75;5012244;28;20180;-73
2021/05/11 05:25:30;;;;;;;4.57;3.33;;;;;;;13.90;100.00;99731.00;5012278;28;20555;-72
2021/05/11 05:30:21;;;;;;;2.97;2.77;;;;;;;13.71;100.00;99720.66;5012304;28;20617;-72
2021/05/11 05:32:47;;;;;;;2.47;2.37;;;;;;;13.70;100.00;99721.81;5012064;28;20173;-72
2021/05/11 05:35:12;;;;;;;2.73;2.53;;;;;;;13.78;100.00;99709.09;5012195;28;20649;-72
2021/05/11 05:37:38;;;;;;;2.53;2.37;;;;;;;13.69;100.00;99711.97;5011961;28;20169;-72
2021/05/11 05:40:06;;;;;;;3.13;2.30;;;;;;;13.70;100.00;99706.13;5012024;28;20238;-72
2021/05/11 05:42:32;;;;;;;2.23;2.13;;;;;;;13.60;100.00;99703.91;5011795;28;20173;-72
2021/05/11 05:44:57;;;;;;;1.87;1.73;;;;;;;13.72;100.00;99713.22;5011829;28;20571;-72
2021/05/11 05:47:22;;;;;;;2.30;2.10;;;;;;;13.66;100.00;99729.97;5011873;28;20181;-72
2021/05/11 05:49:51;;;;;;;1.70;1.60;;;;;;;13.70;100.00;99741.03;5012019;28;20180;-73
2021/05/11 05:52:20;;;;;;;1.77;1.67;;;;;;;13.67;99.90;99725.25;5011136;28;20279;-74
2021/05/11 05:54:48;;;;;;;2.53;2.10;;;;;;;13.59;99.59;99707.78;5011704;28;20172;-74
2021/05/11 05:57:14;;;;;;;1.83;1.50;;;;;;;13.61;98.85;99711.00;5011633;28;20180;-72
2021/05/11 05:59:41;;;;;;;2.07;1.97;;;;;;;13.67;98.68;99715.09;5011700;28;20183;-72
2021/05/11 06:02:15;;;;;;;1.40;1.30;;;;;;;13.66;97.55;99715.44;5011527;28;20173;-72
2021/05/11 06:04:41;;;;;;;1.70;1.60;;;;;;;13.58;97.53;99714.44;4993801;28;20222;-72
2021/05/11 06:07:06;;;;;;;1.67;1.57;;;;;;;13.62;98.70;99712.59;5011445;28;20231;-73
2021/05/11 06:09:32;;;;;;;1.50;1.40;;;;;;;13.73;98.99;99706.59;5011289;28;20180;-75
2021/05/11 06:12:02;;;;;;;1.60;1.50;;;;;;;13.61;98.82;99694.53;5011423;28;20342;-72
2021/05/11 06:19:42;;;;;;;1.80;1.70;;;;;;;13.64;99.99;99690.28;5011603;28;20200;-73
2021/05/11 06:22:07;;;;;;;2.37;2.10;;;;;;;13.65;100.00;99689.13;5011292;28;20219;-72
2021/05/11 06:24:33;;;;;;;1.90;1.80;;;;;;;13.66;100.00;99690.72;5011147;28;20209;-73
2021/05/11 06:26:58;;;;;;;2.30;2.10;;;;;;;13.62;100.00;99700.81;5011335;28;20177;-72
2021/05/11 06:29:26;;;;;;;2.30;2.10;;;;;;;13.60;99.46;99697.63;5011096;28;20187;-73
2021/05/11 06:31:51;;;;;;;2.00;1.90;;;;;;;13.60;99.53;99705.88;5011054;28;20658;-72
2021/05/11 06:34:17;;;;;;;1.70;1.60;;;;;;;13.64;98.71;99701.25;5010944;28;20255;-74
2021/05/11 06:36:42;;;;;;;2.37;1.90;;;;;;;13.64;98.20;99704.81;5011048;28;20263;-73
2021/05/11 06:39:10;;;;;;;4.13;2.03;;;;;;;13.66;98.19;99708.00;5011050;28;20216;-72
2021/05/11 06:41:37;;;;;;;1.77;1.67;;;;;;;13.66;97.94;99694.28;5010864;28;20234;-73
2021/05/11 06:54:39;;;;;;;1.60;1.50;;;;;;;13.96;94.74;99752.34;5010998;28;20176;-72
2021/05/11 06:57:06;;;;;;;1.90;1.70;;;;;;;13.91;94.22;99760.88;5010790;28;20205;-72
2021/05/11 06:59:31;;;;;;;1.97;1.87;;;;;;;13.86;95.04;99746.56;5009462;28;20636;-74
2021/05/11 07:01:59;;;;;;;1.87;1.77;;;;;;;13.84;94.20;99738.69;5010578;28;20187;-73
2021/05/11 07:04:25;;;;;;;1.50;1.40;;;;;;;13.88;93.76;99736.81;5014723;28;20208;-72
2021/05/11 07:06:50;;;;;;;1.97;1.30;;;;;;;13.88;93.02;99739.56;5014676;28;20172;-73
2021/05/11 07:09:20;;;;;;;1.30;1.20;;;;;;;13.83;92.12;99736.28;5014401;28;20192;-75
2021/05/11 07:14:14;;;;;;;2.50;1.67;;;;;;;13.80;94.77;99713.09;5014723;28;20191;-73
2021/05/11 07:16:39;;;;;;;1.87;1.77;;;;;;;13.82;95.11;99719.00;5013277;28;20384;-73
2021/05/11 07:19:04;;;;;;;1.70;1.60;;;;;;;13.83;95.18;99709.63;5014611;28;20242;-73
2021/05/11 07:21:30;;;;;;;2.47;2.00;;;;;;;13.93;96.47;99719.31;5006221;28;20220;-74
2021/05/11 07:23:57;;;;;;;2.10;2.00;;;;;;;13.96;96.84;99705.66;5014016;28;20196;-72
2021/05/11 07:26:28;;;;;;;1.77;1.63;;;;;;;13.99;97.34;99698.66;5014175;28;20172;-73
2021/05/11 07:29:38;;;;;;;1.70;1.60;;;;;;;13.77;97.59;99680.84;5014326;28;20184;-72
2021/05/11 07:31:58;;;;;;;2.00;1.60;;;;;;;13.70;95.24;99666.91;5013559;28;20186;-73
2021/05/11 07:34:26;;;;;;;1.60;1.50;;;;;;;13.74;96.40;99653.28;5014265;28;20383;-72
2021/05/11 07:36:51;;;;;;;1.50;1.40;;;;;;;13.64;95.94;99649.91;5014155;28;20169;-72
2021/05/11 07:39:17;;;;;;;1.30;1.20;;;;;;;13.90;97.24;99656.88;5014066;28;20188;-74
2021/05/11 07:41:42;;;;;;;1.80;1.70;;;;;;;13.90;95.57;99663.16;5014086;28;20351;-73
2021/05/11 07:44:07;;;;;;;1.47;1.37;;;;;;;13.86;96.09;99664.97;5013694;28;20283;-72
2021/05/11 08:05:27;;;;;;;1.73;1.63;;;;;;;13.92;93.49;99649.06;5013585;28;20729;-73
2021/05/11 08:16:05;;;;;;;1.70;1.60;;;;;;;13.74;94.20;99629.38;4962794;28;20189;-72
2021/05/11 08:18:41;;;;;;;1.60;1.50;;;;;;;13.83;94.06;99638.25;5013372;28;20164;-73
2021/05/11 08:29:38;;;;;;;1.73;1.10;;;;;;;14.22;91.40;99641.97;4933316;29;20194;-76
2021/05/11 08:32:04;;;;;;;1.37;1.27;;;;;;;14.21;91.01;99640.38;4979593;28;20271;-74
2021/05/11 08:34:29;;;;;;;1.17;1.07;;;;;;;14.19;90.04;99653.69;5012926;28;20184;-75
2021/05/11 08:36:54;;;;;;;1.83;1.73;;;;;;;14.17;90.35;99644.97;5022730;28;20245;-74
2021/05/11 08:39:20;;;;;;;1.60;1.50;;;;;;;14.17;91.44;99630.44;5020293;28;20230;-77
2021/05/11 08:41:46;;;;;;;1.87;1.77;;;;;;;14.23;90.87;99638.06;5017679;28;20188;-74
2021/05/11 08:44:15;;;;;;;1.30;1.23;;;;;;;14.29;89.99;99625.66;5013169;28;20234;-74
2021/05/11 08:46:41;;;;;;;2.43;1.30;;;;;;;14.23;88.45;99616.09;5013383;28;20203;-73
2021/05/11 08:49:10;;;;;;;1.03;0.93;;;;;;;14.30;87.11;99615.47;5012982;28;20177;-73
2021/05/11 08:51:46;;;;;;;0.80;0.80;;;;;;;14.30;87.20;99613.50;5012900;28;20204;-74
2021/05/11 09:04:34;;;;;;;1.10;1.10;;;;;;;14.42;84.08;99639.28;5012784;28;20226;-74
2021/05/11 09:06:16;;;;;;;1.77;1.13;;;;;;;14.53;86.98;99643.94;5012710;28;20202;-74
2021/05/11 09:09:18;;;;;;;1.73;1.37;;;;;;;14.67;86.57;99642.66;5011031;28;20177;-75
2021/05/11 09:15:23;;;;;;;0.87;0.87;;;;;;;14.50;84.82;99621.84;5012530;28;20623;-76
2021/05/11 09:28:40;;;;;;;1.00;1.00;;;;;;;14.46;86.87;99641.00;4992897;28;20177;-75
2021/05/11 09:31:42;;;;;;;0.80;0.80;;;;;;;14.47;86.65;99650.06;4991323;28;20173;-76
2021/05/11 09:51:29;;;;;;;1.20;1.10;;;;;;;14.37;85.06;99645.06;4981274;28;20189;-74
2021/05/11 09:56:42;;;;;;;0.80;0.80;;;;;;;14.39;84.45;99671.03;4988364;28;20588;-75
2021/05/11 10:00:07;;;;;;;0.63;0.63;;;;;;;14.45;83.85;99660.59;5011545;28;20184;-74
2021/05/11 10:14:18;;;;;;;0.93;0.73;;;;;;;14.32;83.77;99656.31;5011320;28;20207;-76
2021/05/11 10:41:29;;;;;;;0.77;0.77;;;;;;;14.42;82.65;99620.06;5010530;28;20230;-75
2021/05/11 10:47:01;;;;;;;0.70;0.70;;;;;;;14.41;82.02;99599.22;5010976;28;20165;-75
2021/05/11 10:49:29;;;;;;;0.90;0.90;;;;;;;14.37;82.06;99587.38;4991546;28;20185;-74
2021/05/11 10:52:19;;;;;;;0.60;0.60;;;;;;;14.36;82.21;99596.75;4991541;28;20231;-74
2021/05/11 10:55:04;;;;;;;1.13;1.00;;;;;;;14.30;82.57;99593.47;4973858;28;20209;-75
2021/05/11 11:00:24;;;;;;;1.07;0.90;;;;;;;14.51;82.27;99609.72;4991567;28;20543;-75
2021/05/11 11:03:15;;;;;;;2.23;2.03;;;;;;;14.54;82.21;99598.78;4989784;28;20226;-76
2021/05/11 11:05:52;;;;;;;1.87;1.60;;;;;;;14.45;81.00;99608.38;4991562;28;20233;-76
2021/05/11 11:08:39;;;;;;;1.30;1.20;;;;;;;14.74;80.67;99624.34;4991376;28;20196;-76
2021/05/11 11:11:12;;;;;;;2.23;1.60;;;;;;;14.72;79.62;99617.63;4991540;28;20527;-72
2021/05/11 11:13:43;;;;;;;1.20;1.10;;;;;;;14.81;80.71;99619.03;4993420;28;20185;-72
2021/05/11 11:16:09;;;;;;;1.10;0.80;;;;;;;14.89;80.91;99607.00;4999831;28;20164;-72
2021/05/11 11:18:35;;;;;;;1.20;1.10;;;;;;;14.97;80.33;99609.91;4991608;28;20208;-72
2021/05/11 11:23:50;;;;;;;1.63;1.40;;;;;;;14.77;79.59;99604.41;4991386;28;20165;-73
2021/05/11 11:26:25;;;;;;;0.90;0.90;;;;;;;14.89;80.51;99607.00;4973588;28;20220;-73
2021/05/11 11:29:12;;;;;;;0.80;0.80;;;;;;;14.98;79.88;99608.75;4991020;28;20203;-73
2021/05/11 11:31:39;;;;;;;0.70;0.70;;;;;;;14.83;80.34;99608.44;4992635;28;20453;-74
2021/05/11 11:34:21;;;;;;;0.70;0.70;;;;;;;14.80;80.20;99609.19;4990613;28;20286;-75
2021/05/11 11:36:47;;;;;;;1.50;0.60;;;;;;;15.06;80.81;99613.25;4989360;28;20668;-76
2021/05/11 11:39:22;;;;;;;0.97;0.73;;;;;;;14.91;79.82;99622.38;4990971;28;20173;-75
2021/05/11 11:41:50;;;;;;;0.77;0.70;;;;;;;14.92;80.14;99632.22;4990788;28;20173;-73
2021/05/11 11:44:22;;;;;;;0.73;0.73;;;;;;;15.24;80.20;99624.63;4990754;28;20217;-75
2021/05/11 11:46:57;;;;;;;0.63;0.63;;;;;;;15.10;79.03;99616.88;4990787;28;20240;-75
2021/05/11 11:49:28;;;;;;;1.90;1.53;;;;;;;15.15;78.51;99619.31;4991396;28;20177;-74
2021/05/11 11:52:02;;;;;;;1.37;0.53;;;;;;;15.40;78.62;99611.56;4994306;28;20173;-75
2021/05/11 11:59:35;;;;;;;1.10;0.93;;;;;;;15.44;77.62;99590.41;4993953;28;20211;-72
2021/05/11 12:02:03;;;;;;;1.60;1.10;;;;;;;15.53;77.47;99588.22;5011007;28;20203;-72
2021/05/11 12:04:33;;;;;;;0.80;0.80;;;;;;;15.27;76.64;99591.66;5013744;28;20291;-72
2021/05/11 12:07:07;;;;;;;1.50;0.83;;;;;;;15.29;77.04;99592.09;5013820;28;20180;-72
2021/05/11 12:09:33;;;;;;;1.30;1.20;;;;;;;15.44;76.49;99587.66;5013783;28;20172;-72
2021/05/11 12:12:00;;;;;;;1.30;1.13;;;;;;;15.26;77.06;99576.31;5013590;28;20699;-74
2021/05/11 12:14:26;;;;;;;1.30;1.30;;;;;;;15.15;76.55;99573.34;5013585;28;20263;-73
2021/05/11 12:16:52;;;;;;;1.47;1.37;;;;;;;15.26;76.34;99567.25;5013498;28;20259;-73
2021/05/11 12:19:23;;;;;;;1.17;1.07;;;;;;;15.41;77.19;99564.41;5013518;28;20632;-75
2021/05/11 12:21:54;;;;;;;1.60;1.50;;;;;;;15.52;76.42;99575.63;5013453;28;20240;-74
2021/05/11 12:24:31;;;;;;;1.60;1.50;;;;;;;15.69;75.46;99591.69;5013287;28;20192;-71
2021/05/11 12:27:19;;;;;;;1.60;1.50;;;;;;;15.81;76.49;99579.72;4995815;28;20811;-72
2021/05/11 12:30:17;;;;;;;1.70;1.60;;;;;;;15.59;75.54;99586.78;5012461;28;20180;-75
2021/05/11 12:32:43;;;;;;;1.40;1.30;;;;;;;15.65;75.37;99596.34;4943466;28;20798;-78
2021/05/11 12:35:11;;;;;;;1.57;1.47;;;;;;;15.63;76.66;99606.94;5013224;28;20181;-77
2021/05/11 12:37:55;;;;;;;2.10;2.00;;;;;;;15.90;75.82;99594.00;4995528;28;20168;-77
2021/05/11 12:40:28;;;;;;;1.70;1.60;;;;;;;16.05;75.42;99606.06;5013175;28;20230;-77
2021/05/11 12:42:56;;;;;;;1.47;1.37;;;;;;;16.15;73.62;99610.16;4995273;28;20189;-74
2021/05/11 12:45:22;;;;;;;2.23;2.13;;;;;;;16.18;73.43;99610.22;4995379;28;20207;-75
2021/05/11 12:47:59;;;;;;;1.70;1.60;;;;;;;16.15;73.61;99616.47;5012954;28;20176;-78
2021/05/11 12:50:27;;;;;;;1.80;1.47;;;;;;;16.10;73.65;99616.00;5013077;28;20161;-76
2021/05/11 12:52:55;;;;;;;1.67;1.40;;;;;;;16.13;73.80;99626.28;5012722;28;20172;-76
2021/05/11 12:58:26;;;;;;;1.30;1.20;;;;;;;15.94;73.75;99629.91;5013004;28;20914;-76
2021/05/11 13:01:00;;;;;;;1.13;1.13;;;;;;;16.01;75.36;99632.78;5012601;28;20519;-76
2021/05/11 13:03:41;;;;;;;1.43;1.00;;;;;;;16.02;75.68;99635.16;5011346;28;20184;-77
2021/05/11 13:25:11;;;;;;;0.80;0.80;;;;;;;15.94;74.35;99605.91;5012567;28;20283;-76
2021/05/11 13:28:41;;;;;;;0.57;0.57;;;;;;;16.10;73.52;99611.28;5012212;28;20548;-73
2021/05/11 13:33:13;;;;;;;0.93;0.83;;;;;;;16.11;75.30;99604.59;5012131;28;20183;-72
2021/05/11 13:35:39;;;;;;;0.80;0.80;;;;;;;15.92;74.41;99594.47;5012002;28;20200;-73
2021/05/11 13:38:05;;;;;;;0.80;0.80;;;;;;;16.00;74.92;99587.88;5012124;28;20209;-76
2021/05/11 13:40:32;;;;;;;1.00;0.70;;;;;;;16.04;73.56;99591.50;5010707;28;20728;-76
2021/05/11 13:42:57;;;;;;;0.97;0.97;;;;;;;15.82;73.49;99588.75;5011837;28;20176;-72
2021/05/11 13:45:24;;;;;;;0.73;0.73;;;;;;;15.87;74.15;99589.25;5011765;28;20215;-72
2021/05/11 13:48:03;;;;;;;0.97;0.97;;;;;;;15.82;74.41;99600.56;5011811;28;20256;-74
2021/05/11 13:53:03;;;;;;;0.80;0.73;;;;;;;16.06;73.54;99610.44;5011738;28;20594;-74
2021/05/11 13:55:37;;;;;;;0.90;0.87;;;;;;;16.12;73.83;99605.41;5011794;28;20180;-73
2021/05/11 14:03:31;;;;;;;3.10;2.90;;;;;;;15.97;74.08;99593.34;5011560;28;20172;-77
2021/05/11 14:05:57;;;;;;;3.67;1.90;;;;;;;15.80;73.61;99594.63;5011451;28;20200;-74
2021/05/11 14:08:22;;;;;;;1.13;1.10;;;;;;;15.71;74.47;99596.84;5011898;28;20656;-74
2021/05/11 14:10:48;;;;;;;0.87;0.87;;;;;;;15.56;74.68;99604.00;5011309;28;20529;-77
2021/05/11 14:13:13;;;;;;;0.90;0.90;;;;;;;15.65;75.91;99607.38;5010729;28;20176;-73
2021/05/11 14:15:38;;;;;;;1.33;1.17;;;;;;;15.78;75.24;99605.22;5011295;28;20184;-75
2021/05/11 14:18:04;;;;;;;1.50;1.40;;;;;;;15.72;75.31;99606.69;4993648;28;20173;-77
2021/05/11 14:20:30;;;;;;;0.80;0.80;;;;;;;15.87;76.48;99605.78;5011289;28;20188;-77
2021/05/11 14:22:56;;;;;;;1.13;0.70;;;;;;;16.04;75.44;99621.00;5011169;28;20169;-76
2021/05/11 14:25:21;;;;;;;0.90;0.90;;;;;;;15.98;74.81;99617.78;5011048;28;20560;-77
2021/05/11 14:27:46;;;;;;;0.97;0.77;;;;;;;16.08;74.75;99623.84;5011275;28;20637;-77
2021/05/11 14:30:18;;;;;;;1.00;0.93;;;;;;;15.94;73.69;99613.38;5011251;28;20511;-76
2021/05/11 14:32:44;;;;;;;0.50;0.50;;;;;;;15.66;74.42;99614.47;5011201;28;20575;-75
2021/05/11 14:35:09;;;;;;;1.13;1.03;;;;;;;15.61;74.78;99619.44;5011205;28;20169;-72
2021/05/11 14:37:35;;;;;;;0.90;0.90;;;;;;;15.84;75.55;99625.78;5011092;28;20255;-72
2021/05/11 14:40:00;;;;;;;1.07;0.70;;;;;;;15.66;73.75;99619.19;5011081;28;20207;-76
2021/05/11 14:42:25;;;;;;;0.60;0.60;;;;;;;15.97;74.87;99607.13;5010813;28;20227;-72
2021/05/11 14:44:54;;;;;;;1.67;0.93;;;;;;;16.02;74.37;99604.84;5010959;28;20207;-76
2021/05/11 14:47:19;;;;;;;0.90;0.80;;;;;;;16.27;74.37;99596.19;5010973;28;20195;-75
2021/05/11 14:49:44;;;;;;;1.43;1.33;;;;;;;16.32;74.76;99598.63;5010851;28;20563;-76
2021/05/11 14:52:12;;;;;;;1.90;1.80;;;;;;;16.36;75.16;99603.03;5010770;28;20169;-77
2021/05/11 14:54:38;;;;;;;1.23;1.20;;;;;;;16.37;74.88;99601.09;5010845;28;20168;-75
2021/05/11 14:57:04;;;;;;;0.90;0.90;;;;;;;16.43;75.64;99601.53;4993190;28;20180;-77
2021/05/11 14:59:29;;;;;;;1.60;0.70;;;;;;;15.97;73.55;99601.63;5010814;28;20561;-77
2021/05/11 15:01:54;;;;;;;0.90;0.90;;;;;;;15.74;74.70;99607.09;5010712;28;20176;-76
2021/05/11 15:04:20;;;;;;;1.83;0.90;;;;;;;15.87;75.77;99603.00;4993147;28;20300;-77
2021/05/11 15:06:45;;;;;;;1.43;1.10;;;;;;;15.85;75.55;99594.31;5010772;28;20176;-77
2021/05/11 15:09:10;;;;;;;0.63;0.63;;;;;;;15.90;75.54;99605.03;5010393;28;20177;-77
2021/05/11 15:11:36;;;;;;;0.60;0.60;;;;;;;15.70;75.39;99609.81;5010933;28;20208;-77
2021/05/11 15:14:02;;;;;;;0.70;0.70;;;;;;;15.67;76.45;99609.75;5010718;28;20177;-76
2021/05/11 15:16:28;;;;;;;0.70;0.70;;;;;;;15.57;76.02;99600.09;4993368;28;20633;-77
2021/05/11 15:18:53;;;;;;;1.97;1.50;;;;;;;15.44;76.43;99599.47;5010759;28;20632;-76
2021/05/11 15:21:19;;;;;;;1.17;1.07;;;;;;;15.49;76.62;99609.41;5010795;28;20200;-77
2021/05/11 15:23:47;;;;;;;1.00;1.00;;;;;;;15.46;77.78;99599.88;5010456;28;20177;-77
2021/05/11 15:26:13;;;;;;;1.10;1.00;;;;;;;15.39;78.62;99608.03;4996902;28;20200;-79
2021/05/11 15:28:39;;;;;;;0.90;0.90;;;;;;;15.40;79.29;99601.34;4996974;28;20646;-75
2021/05/11 15:31:05;;;;;;;1.33;1.23;;;;;;;15.37;79.73;99591.09;5014539;28;20208;-76
2021/05/11 15:33:30;;;;;;;1.43;1.20;;;;;;;15.47;80.96;99595.19;5014283;28;20211;-75
2021/05/11 15:35:58;;;;;;;1.40;1.30;;;;;;;15.39;81.99;99583.25;5014318;28;20824;-75
2021/05/11 15:38:25;;;;;;;1.07;1.00;;;;;;;15.36;80.97;99577.69;5014691;28;20181;-75
2021/05/11 15:40:51;;;;;;;0.90;0.90;;;;;;;15.45;80.73;99576.28;5014108;28;20184;-76